Time;durP1;ratioP1;P1;durP2;ratioP2;P2;SDS_P1;SDS_P2;PMS_P1;PMS_P2;Temp;Humidity;BMP_temperature;BMP_pressure;BME280_temperature;BME280_humidity;BME280_pressure;Samples;Min_cycle;Max_cycle;Signal;HPM_P1;HPM_P2
2022/03/01 00:00:36;;;;;;;540.83;67.27;;;1.60;99.90;;;;;;4955300;28;20460;-72
2022/03/01 00:03:04;;;;;;;428.40;86.20;;;1.60;99.90;;;;;;4956740;29;20464;-72
2022/03/01 00:05:32;;;;;;;426.80;61.03;;;1.60;99.90;;;;;;4955670;28;20481;-71
2022/03/01 00:08:00;;;;;;;375.90;58.33;;;1.50;99.90;;;;;;4955355;29;20450;-72
2022/03/01 00:10:29;;;;;;;640.13;140.03;;;1.50;99.90;;;;;;4955046;28;20896;-72
2022/03/01 00:12:57;;;;;;;578.97;79.73;;;1.50;99.90;;;;;;4956234;28;20909;-72
2022/03/01 00:15:25;;;;;;;433.87;57.87;;;1.50;99.90;;;;;;4956855;29;20540;-73
2022/03/01 00:17:55;;;;;;;413.67;62.50;;;1.50;99.90;;;;;;4956501;29;20443;-72
2022/03/01 00:20:23;;;;;;;636.87;80.07;;;1.40;99.90;;;;;;4954866;29;21060;-72
2022/03/01 00:22:51;;;;;;;449.40;85.73;;;1.40;99.90;;;;;;4956257;28;20456;-72
2022/03/01 00:25:20;;;;;;;614.40;88.10;;;1.30;99.90;;;;;;4954807;28;20570;-73
2022/03/01 00:27:48;;;;;;;508.00;77.67;;;1.30;99.90;;;;;;4955662;29;20448;-71
2022/03/01 00:30:16;;;;;;;636.13;115.10;;;1.30;99.90;;;;;;4955939;28;20450;-72
2022/03/01 00:32:47;;;;;;;445.83;60.40;;;1.30;99.90;;;;;;4954728;28;20831;-73
2022/03/01 00:35:18;;;;;;;451.80;64.47;;;1.20;99.90;;;;;;4965184;28;20452;-71
2022/03/01 00:37:46;;;;;;;402.53;51.80;;;1.20;99.90;;;;;;4973852;28;20470;-72
2022/03/01 00:40:14;;;;;;;624.27;74.00;;;1.20;99.90;;;;;;4975111;28;20457;-72
2022/03/01 00:42:42;;;;;;;554.93;101.80;;;1.10;99.90;;;;;;4965857;28;21305;-72
2022/03/01 00:45:11;;;;;;;577.63;83.57;;;1.10;99.90;;;;;;4975363;28;20493;-72
2022/03/01 00:47:39;;;;;;;477.43;76.60;;;1.10;99.90;;;;;;4956066;28;20972;-71
2022/03/01 00:50:08;;;;;;;642.57;105.43;;;1.00;99.90;;;;;;4969861;28;20482;-72
2022/03/01 00:52:38;;;;;;;478.03;101.70;;;1.00;99.90;;;;;;4955621;28;20459;-73
2022/03/01 00:55:08;;;;;;;1999.90;376.97;;;1.00;99.90;;;;;;4955965;28;20530;-72
2022/03/01 00:57:36;;;;;;;491.67;98.10;;;1.00;99.90;;;;;;4955927;29;20510;-73
2022/03/01 01:00:09;;;;;;;506.10;95.10;;;1.00;99.90;;;;;;4955632;29;20516;-73
2022/03/01 01:02:37;;;;;;;164.83;60.23;;;1.00;99.90;;;;;;4955504;28;20464;-72
2022/03/01 01:05:09;;;;;;;634.20;108.87;;;0.90;99.90;;;;;;4954236;29;20484;-73
2022/03/01 01:07:38;;;;;;;1999.90;326.43;;;0.90;99.90;;;;;;4954182;29;20878;-73
2022/03/01 01:10:10;;;;;;;532.33;85.60;;;0.90;99.90;;;;;;4955475;29;20793;-72
2022/03/01 01:12:40;;;;;;;434.83;100.27;;;0.90;99.90;;;;;;4955458;28;20828;-72
2022/03/01 01:15:12;;;;;;;1999.90;375.47;;;0.90;99.90;;;;;;4954202;28;20439;-72
2022/03/01 01:17:40;;;;;;;1999.90;330.13;;;0.90;99.90;;;;;;4954074;28;21022;-71
2022/03/01 01:20:10;;;;;;;432.87;81.27;;;0.90;99.90;;;;;;4960566;28;20440;-73
2022/03/01 01:22:42;;;;;;;1999.90;326.53;;;0.90;99.90;;;;;;4963259;28;20987;-73
2022/03/01 01:25:13;;;;;;;620.40;102.57;;;0.90;99.90;;;;;;4969868;28;20475;-72
2022/03/01 01:27:43;;;;;;;501.27;91.20;;;0.90;99.90;;;;;;4972976;28;20813;-73
2022/03/01 01:30:14;;;;;;;1999.90;323.80;;;0.90;99.90;;;;;;4966168;28;20443;-73
2022/03/01 01:32:43;;;;;;;635.00;111.23;;;0.90;99.90;;;;;;4974370;28;20463;-73
2022/03/01 01:35:13;;;;;;;346.63;82.37;;;0.80;99.90;;;;;;4973203;28;20442;-73
2022/03/01 01:37:43;;;;;;;1999.90;348.87;;;0.80;99.90;;;;;;4975022;28;20432;-73
2022/03/01 01:40:14;;;;;;;1999.90;369.03;;;0.80;99.90;;;;;;4974725;28;21034;-73
2022/03/01 01:42:42;;;;;;;732.80;120.37;;;0.80;99.90;;;;;;4973093;28;21066;-73
2022/03/01 01:45:11;;;;;;;1999.90;340.07;;;0.80;99.90;;;;;;4972987;28;20466;-72
2022/03/01 01:47:47;;;;;;;441.87;89.97;;;0.80;99.90;;;;;;4961212;28;20455;-73
2022/03/01 01:50:16;;;;;;;1999.90;316.97;;;0.90;99.90;;;;;;4954915;28;20948;-73
2022/03/01 01:52:48;;;;;;;686.63;109.83;;;0.90;99.90;;;;;;4954926;29;20553;-73
2022/03/01 01:55:17;;;;;;;326.83;69.83;;;0.80;99.90;;;;;;4953567;28;20474;-73
2022/03/01 01:57:46;;;;;;;732.13;143.07;;;0.80;99.90;;;;;;4955003;28;20517;-73
2022/03/01 02:00:15;;;;;;;1942.87;273.47;;;0.80;99.90;;;;;;4957395;28;20454;-73
2022/03/01 02:02:44;;;;;;;374.97;79.57;;;0.80;99.90;;;;;;4958666;29;20474;-73
2022/03/01 02:05:13;;;;;;;285.57;50.03;;;0.80;99.90;;;;;;4958859;28;20471;-73
2022/03/01 02:07:47;;;;;;;515.23;90.83;;;0.80;99.90;;;;;;4956926;28;20451;-73
2022/03/01 02:10:16;;;;;;;552.40;93.63;;;0.80;99.90;;;;;;4958632;29;20514;-73
2022/03/01 02:12:45;;;;;;;355.43;74.70;;;0.80;99.90;;;;;;4962738;28;20559;-73
2022/03/01 02:15:13;;;;;;;479.43;86.13;;;0.80;99.90;;;;;;4961443;28;20800;-73
2022/03/01 02:17:43;;;;;;;1084.50;155.60;;;0.80;99.90;;;;;;4975107;28;20450;-73
2022/03/01 02:20:15;;;;;;;352.13;78.50;;;0.80;99.90;;;;;;4978033;28;20500;-73
2022/03/01 02:22:44;;;;;;;382.00;74.30;;;0.80;99.90;;;;;;4977943;28;20878;-73
2022/03/01 02:25:12;;;;;;;1999.90;299.17;;;0.80;99.90;;;;;;4977837;28;20476;-73
2022/03/01 02:27:40;;;;;;;277.10;68.93;;;0.80;99.90;;;;;;4977513;28;20435;-73
2022/03/01 02:30:10;;;;;;;623.73;100.67;;;0.80;99.90;;;;;;4977751;28;20441;-73
2022/03/01 02:32:38;;;;;;;224.47;52.23;;;0.80;99.90;;;;;;4968804;28;20479;-73
2022/03/01 02:35:08;;;;;;;313.07;68.47;;;0.80;99.90;;;;;;4958182;28;20457;-73
2022/03/01 02:37:37;;;;;;;445.03;94.00;;;0.70;99.90;;;;;;4958067;28;20940;-73
2022/03/01 02:40:07;;;;;;;1999.90;336.27;;;0.80;99.90;;;;;;4958126;29;20542;-73
2022/03/01 02:42:36;;;;;;;678.53;114.73;;;0.70;99.90;;;;;;4958118;28;20467;-73
2022/03/01 02:45:05;;;;;;;1711.13;270.53;;;0.80;99.90;;;;;;4956763;28;20525;-72
2022/03/01 02:47:36;;;;;;;652.07;113.43;;;0.70;99.90;;;;;;4957956;29;20449;-73
2022/03/01 02:50:06;;;;;;;548.00;111.80;;;0.70;99.90;;;;;;4958191;29;20454;-73
2022/03/01 02:52:39;;;;;;;644.60;95.80;;;0.70;99.90;;;;;;4955238;28;20474;-73
2022/03/01 02:55:09;;;;;;;646.20;109.30;;;0.70;99.90;;;;;;4958002;28;20538;-73
2022/03/01 02:57:40;;;;;;;275.80;71.13;;;0.70;99.90;;;;;;4957810;28;20451;-73
2022/03/01 03:00:10;;;;;;;509.30;100.17;;;0.60;99.90;;;;;;4956062;28;20451;-73
2022/03/01 03:02:41;;;;;;;343.47;72.60;;;0.70;99.90;;;;;;4957596;28;20473;-73
2022/03/01 03:05:10;;;;;;;1999.90;348.70;;;0.60;99.90;;;;;;4957626;28;20819;-72
2022/03/01 03:07:44;;;;;;;465.77;111.53;;;0.60;99.90;;;;;;4956311;29;20454;-73
2022/03/01 03:10:12;;;;;;;1999.90;305.30;;;0.60;99.90;;;;;;4957015;28;20453;-73
2022/03/01 03:12:44;;;;;;;1999.90;325.73;;;0.60;99.90;;;;;;4956273;28;20466;-73
2022/03/01 03:15:13;;;;;;;436.30;75.40;;;0.60;99.90;;;;;;4957453;28;20451;-73
2022/03/01 03:17:41;;;;;;;611.60;121.90;;;0.60;99.90;;;;;;4957668;28;20471;-73
2022/03/01 03:20:10;;;;;;;507.93;76.10;;;0.60;99.90;;;;;;4957592;28;20450;-73
2022/03/01 03:22:39;;;;;;;1014.57;141.17;;;0.60;99.90;;;;;;4957357;29;20886;-73
2022/03/01 03:25:09;;;;;;;489.37;91.83;;;0.60;99.90;;;;;;4957438;29;20616;-72
2022/03/01 03:27:37;;;;;;;1999.90;398.20;;;0.50;99.90;;;;;;4957527;29;20535;-73
2022/03/01 03:30:07;;;;;;;472.73;83.27;;;0.50;99.90;;;;;;4956851;29;20473;-73
2022/03/01 03:32:36;;;;;;;410.67;96.87;;;0.50;99.90;;;;;;4957031;29;20475;-73
2022/03/01 03:35:05;;;;;;;615.00;103.00;;;0.50;99.90;;;;;;4957334;29;20439;-72
2022/03/01 03:37:34;;;;;;;1999.90;360.37;;;0.40;99.90;;;;;;4955768;29;20451;-72
2022/03/01 03:40:03;;;;;;;204.80;52.70;;;0.40;99.90;;;;;;4956885;28;20893;-73
2022/03/01 03:42:33;;;;;;;1999.90;362.77;;;0.40;99.90;;;;;;4957108;28;20458;-73
2022/03/01 03:45:07;;;;;;;564.00;92.70;;;0.40;99.90;;;;;;4957193;29;20813;-72
2022/03/01 03:47:35;;;;;;;1194.77;187.20;;;0.40;99.90;;;;;;4955445;29;20471;-72
2022/03/01 03:50:04;;;;;;;535.17;104.63;;;0.40;99.90;;;;;;4957045;29;20447;-72
2022/03/01 03:52:32;;;;;;;1999.90;343.13;;;0.40;99.90;;;;;;4956701;29;20828;-73
2022/03/01 03:55:00;;;;;;;548.53;117.17;;;0.40;99.90;;;;;;4956799;29;20448;-73
2022/03/01 03:57:28;;;;;;;1963.27;326.77;;;0.30;99.90;;;;;;4954621;29;20465;-72
2022/03/01 03:59:58;;;;;;;1999.90;395.97;;;0.30;99.90;;;;;;4969721;28;20458;-72
2022/03/01 04:02:26;;;;;;;1999.90;326.30;;;0.30;99.90;;;;;;4965566;28;20566;-72
2022/03/01 04:04:54;;;;;;;477.03;83.33;;;0.30;99.90;;;;;;4956502;29;20466;-72
2022/03/01 04:07:23;;;;;;;1999.90;387.40;;;0.30;99.90;;;;;;4956589;28;20475;-73
2022/03/01 04:09:52;;;;;;;1999.90;329.10;;;0.30;99.90;;;;;;4956711;29;20530;-72
2022/03/01 04:12:20;;;;;;;1999.90;284.03;;;0.30;99.90;;;;;;4956585;28;20473;-73
2022/03/01 04:14:49;;;;;;;1999.90;393.40;;;0.30;99.90;;;;;;4956559;28;20537;-72
2022/03/01 04:17:18;;;;;;;429.77;74.83;;;0.30;99.90;;;;;;4956272;29;20443;-72
2022/03/01 04:19:46;;;;;;;1938.80;244.50;;;0.20;99.90;;;;;;4956278;29;20529;-72
2022/03/01 04:22:14;;;;;;;1648.07;200.90;;;0.20;99.90;;;;;;4954689;28;21005;-72
2022/03/01 04:24:42;;;;;;;470.47;70.00;;;0.20;99.90;;;;;;4956174;29;20493;-72
2022/03/01 04:27:10;;;;;;;1999.90;349.20;;;0.20;99.90;;;;;;4954820;28;20471;-72
2022/03/01 04:29:38;;;;;;;1983.20;293.93;;;0.20;99.90;;;;;;4954779;29;20827;-72
2022/03/01 04:32:07;;;;;;;1888.83;273.20;;;0.20;99.90;;;;;;4955996;28;20473;-72
2022/03/01 04:34:37;;;;;;;513.30;75.97;;;0.20;99.90;;;;;;4955929;28;20490;-72
2022/03/01 04:37:07;;;;;;;428.33;84.27;;;0.20;99.90;;;;;;4956014;29;20428;-72
2022/03/01 04:39:35;;;;;;;369.10;90.53;;;0.20;99.90;;;;;;4955915;29;20497;-72
2022/03/01 04:42:05;;;;;;;1103.97;178.53;;;0.20;99.90;;;;;;4954543;28;20564;-72
2022/03/01 04:44:33;;;;;;;1999.90;322.83;;;0.20;99.90;;;;;;4955853;28;20435;-72
2022/03/01 04:47:02;;;;;;;1999.90;321.17;;;0.20;99.90;;;;;;4955693;28;21063;-72
2022/03/01 04:49:32;;;;;;;1999.90;316.80;;;0.20;99.90;;;;;;4954473;28;20450;-72
2022/03/01 04:52:02;;;;;;;640.33;108.40;;;0.20;99.90;;;;;;4953251;29;20566;-73
2022/03/01 04:54:33;;;;;;;1966.30;292.80;;;0.20;99.90;;;;;;4955625;28;20441;-72
2022/03/01 04:57:01;;;;;;;1999.90;326.63;;;0.10;99.90;;;;;;4955488;29;20554;-72
2022/03/01 04:59:29;;;;;;;1999.90;338.27;;;0.20;99.90;;;;;;4955855;28;20517;-72
2022/03/01 05:01:57;;;;;;;1432.60;187.20;;;0.10;99.90;;;;;;4955448;28;20500;-72
2022/03/01 05:04:26;;;;;;;1999.90;309.20;;;0.10;99.90;;;;;;4955505;29;20449;-72
2022/03/01 05:06:55;;;;;;;580.60;89.23;;;0.10;99.90;;;;;;4955683;29;20474;-72
2022/03/01 05:09:24;;;;;;;1999.90;257.20;;;0.10;99.90;;;;;;4954488;29;20454;-73
2022/03/01 05:11:53;;;;;;;129.93;34.80;;;0.10;99.90;;;;;;4951976;28;20466;-73
2022/03/01 05:14:21;;;;;;;409.13;87.67;;;0.10;99.90;;;;;;4953966;28;20540;-72
2022/03/01 05:16:49;;;;;;;1169.67;147.43;;;0.10;99.90;;;;;;4955181;28;20963;-72
2022/03/01 05:19:18;;;;;;;1434.63;199.23;;;0.10;99.90;;;;;;4955713;29;20439;-72
2022/03/01 05:21:46;;;;;;;523.40;76.23;;;0.10;99.90;;;;;;4953179;28;20486;-73
2022/03/01 05:24:14;;;;;;;1999.90;279.30;;;0.10;99.90;;;;;;4955260;28;20538;-73
2022/03/01 05:26:45;;;;;;;1920.87;230.87;;;0.00;99.90;;;;;;4953871;29;20505;-72
2022/03/01 05:29:13;;;;;;;524.23;75.30;;;0.10;99.90;;;;;;4953990;29;20459;-73
2022/03/01 05:31:41;;;;;;;679.70;88.90;;;0.00;99.90;;;;;;4955209;28;20464;-73
2022/03/01 05:34:09;;;;;;;1999.90;379.80;;;0.00;99.90;;;;;;4954774;29;20442;-72
2022/03/01 05:36:38;;;;;;;522.37;81.50;;;0.00;99.90;;;;;;4955167;29;20518;-72
2022/03/01 05:39:06;;;;;;;1457.20;217.90;;;0.00;99.90;;;;;;4955376;29;20453;-72
2022/03/01 05:41:34;;;;;;;1999.90;341.80;;;0.00;99.90;;;;;;4953726;28;20458;-73
2022/03/01 05:44:04;;;;;;;1999.90;309.47;;;0.00;99.90;;;;;;4953834;29;20450;-73
2022/03/01 05:46:33;;;;;;;1999.90;290.70;;;0.00;99.90;;;;;;4953422;28;20469;-73
2022/03/01 05:49:01;;;;;;;448.67;70.77;;;0.00;99.90;;;;;;4953716;28;20455;-73
2022/03/01 05:51:29;;;;;;;1883.43;210.83;;;0.00;99.90;;;;;;4955040;28;20474;-72
2022/03/01 05:53:58;;;;;;;1251.37;137.57;;;0.00;99.90;;;;;;4955101;28;20434;-72
2022/03/01 05:56:26;;;;;;;726.77;101.30;;;0.00;99.90;;;;;;4954885;28;20569;-72
2022/03/01 05:58:54;;;;;;;1999.90;317.30;;;0.00;99.90;;;;;;4955225;28;20538;-72
2022/03/01 06:01:23;;;;;;;1999.90;296.40;;;0.00;99.90;;;;;;4954930;29;20443;-72
2022/03/01 06:03:51;;;;;;;1999.90;379.87;;;0.00;99.90;;;;;;4954875;28;20541;-72
2022/03/01 06:06:20;;;;;;;1999.90;307.07;;;0.00;99.90;;;;;;4953277;28;20454;-73
2022/03/01 06:08:48;;;;;;;562.20;89.37;;;0.00;99.90;;;;;;4953582;29;20485;-72
2022/03/01 06:11:16;;;;;;;1262.53;150.60;;;0.00;99.90;;;;;;4953234;28;20453;-72
2022/03/01 06:13:49;;;;;;;1999.90;339.83;;;0.00;99.90;;;;;;4954829;29;20501;-72
2022/03/01 06:16:17;;;;;;;510.17;86.00;;;0.00;99.90;;;;;;4954922;28;20791;-73
2022/03/01 06:18:47;;;;;;;1972.40;287.30;;;0.00;99.90;;;;;;4963873;28;20454;-73
2022/03/01 06:21:16;;;;;;;479.63;81.37;;;0.00;99.90;;;;;;4972849;28;20815;-73
2022/03/01 06:23:44;;;;;;;1999.90;401.43;;;0.00;99.90;;;;;;4973973;28;20458;-73
2022/03/01 06:26:13;;;;;;;262.50;71.87;;;0.00;99.90;;;;;;4974712;28;20448;-73
2022/03/01 06:28:41;;;;;;;597.17;97.17;;;0.00;99.90;;;;;;4972618;28;20474;-73
2022/03/01 06:31:10;;;;;;;422.83;92.90;;;0.00;99.90;;;;;;4972683;28;20465;-73
2022/03/01 06:33:38;;;;;;;1949.07;288.57;;;0.00;99.90;;;;;;4973932;28;20497;-73
2022/03/01 06:36:08;;;;;;;1999.90;306.03;;;0.00;99.90;;;;;;4974061;28;21018;-73
2022/03/01 06:38:36;;;;;;;913.87;129.13;;;0.10;99.90;;;;;;4974195;28;20791;-73
2022/03/01 06:41:04;;;;;;;1363.93;153.27;;;0.10;99.90;;;;;;4972595;28;20540;-74
2022/03/01 06:43:32;;;;;;;801.27;70.47;;;0.10;99.90;;;;;;4973986;28;20803;-74
2022/03/01 06:46:00;;;;;;;586.43;109.37;;;0.10;99.90;;;;;;4975442;28;20476;-73
2022/03/01 06:48:29;;;;;;;370.67;62.13;;;0.20;99.90;;;;;;4977233;28;20485;-73
2022/03/01 06:50:57;;;;;;;340.63;64.97;;;0.20;99.90;;;;;;4977433;28;20448;-73
2022/03/01 06:53:27;;;;;;;482.10;79.93;;;0.20;99.90;;;;;;4977359;28;20466;-73
2022/03/01 06:55:55;;;;;;;587.20;48.97;;;0.30;99.90;;;;;;4977226;28;20449;-73
2022/03/01 06:58:23;;;;;;;422.73;84.50;;;0.30;99.90;;;;;;4975877;28;20502;-73
2022/03/01 07:00:51;;;;;;;1965.43;267.90;;;0.30;99.90;;;;;;4977420;28;20463;-73
2022/03/01 07:03:20;;;;;;;678.93;61.07;;;0.40;99.90;;;;;;4977222;28;20479;-73
2022/03/01 07:05:48;;;;;;;1999.90;281.63;;;0.40;99.90;;;;;;4975768;28;20457;-73
2022/03/01 07:08:20;;;;;;;339.77;81.53;;;0.50;99.90;;;;;;4976839;28;20577;-74
2022/03/01 07:10:50;;;;;;;384.77;71.80;;;0.50;99.90;;;;;;4976942;28;20526;-74
2022/03/01 07:13:18;;;;;;;658.60;114.10;;;0.60;99.90;;;;;;4976599;28;20524;-74
2022/03/01 07:15:46;;;;;;;506.83;96.93;;;0.60;99.90;;;;;;4977111;28;20480;-74
2022/03/01 07:18:14;;;;;;;485.37;91.57;;;0.70;99.90;;;;;;4975572;28;20504;-74
2022/03/01 07:20:44;;;;;;;318.17;38.00;;;0.80;99.90;;;;;;4977512;28;20517;-73
2022/03/01 07:23:13;;;;;;;609.23;99.73;;;0.90;99.90;;;;;;4976660;28;20975;-73
2022/03/01 07:25:42;;;;;;;519.70;81.10;;;1.00;99.90;;;;;;4976579;28;20435;-74
2022/03/01 07:28:11;;;;;;;608.30;46.93;;;1.00;99.90;;;;;;4976386;28;21040;-74
2022/03/01 07:30:39;;;;;;;1193.43;117.33;;;1.20;99.90;;;;;;4975230;28;20493;-74
2022/03/01 07:33:07;;;;;;;664.80;106.37;;;1.30;99.90;;;;;;4975326;28;20480;-74
2022/03/01 07:35:36;;;;;;;509.93;98.17;;;1.40;99.90;;;;;;4975123;28;20457;-73
2022/03/01 07:38:04;;;;;;;1999.90;377.10;;;1.40;99.90;;;;;;4976575;28;20542;-74
2022/03/01 07:40:32;;;;;;;583.17;99.60;;;1.50;99.90;;;;;;4975114;28;20817;-74
2022/03/01 07:43:00;;;;;;;589.90;75.70;;;1.50;99.90;;;;;;4974950;28;20565;-74
2022/03/01 07:45:30;;;;;;;1264.53;179.30;;;1.60;99.90;;;;;;4976503;28;20452;-74
2022/03/01 07:48:00;;;;;;;1616.10;245.23;;;1.60;99.90;;;;;;4976098;28;20475;-74
2022/03/01 07:50:29;;;;;;;1641.53;310.07;;;1.70;99.90;;;;;;4974869;28;20467;-73
2022/03/01 07:52:58;;;;;;;348.30;71.80;;;1.80;99.90;;;;;;4976013;28;20837;-74
2022/03/01 07:55:26;;;;;;;529.77;79.37;;;1.80;99.90;;;;;;4974691;28;20460;-73
2022/03/01 07:57:54;;;;;;;1655.80;311.97;;;1.80;99.90;;;;;;4975674;28;20477;-74
2022/03/01 08:00:24;;;;;;;710.03;93.70;;;1.90;99.90;;;;;;4974741;28;20451;-74
2022/03/01 08:02:54;;;;;;;1874.03;375.47;;;2.00;99.90;;;;;;4975745;28;20481;-74
2022/03/01 08:05:23;;;;;;;1999.90;469.87;;;2.20;99.90;;;;;;4975856;28;20450;-74
2022/03/01 08:07:56;;;;;;;1999.90;454.93;;;2.30;99.90;;;;;;4976301;28;20433;-74
2022/03/01 08:10:24;;;;;;;1999.90;399.23;;;2.40;99.90;;;;;;4976105;28;20811;-74
2022/03/01 08:12:54;;;;;;;1999.90;431.97;;;2.50;99.90;;;;;;4975944;28;20473;-74
2022/03/01 08:15:26;;;;;;;652.77;76.90;;;2.60;99.90;;;;;;4975627;28;20437;-74
2022/03/01 08:17:57;;;;;;;1089.27;226.17;;;2.70;99.90;;;;;;4975646;28;20490;-74
2022/03/01 08:20:26;;;;;;;1713.57;318.40;;;2.90;99.90;;;;;;4974547;28;20864;-74
2022/03/01 08:22:56;;;;;;;1297.00;237.07;;;2.90;99.90;;;;;;4975440;28;20875;-74
2022/03/01 08:25:25;;;;;;;908.37;182.53;;;3.10;99.90;;;;;;4975631;28;20434;-74
2022/03/01 08:27:53;;;;;;;1220.73;220.47;;;3.20;99.90;;;;;;4974095;28;20491;-74
2022/03/01 08:30:21;;;;;;;920.40;194.37;;;3.20;99.90;;;;;;4975369;28;20942;-74
2022/03/01 08:32:50;;;;;;;976.20;183.17;;;3.30;99.90;;;;;;4975407;28;20551;-74
2022/03/01 08:35:19;;;;;;;1104.40;186.43;;;3.30;99.90;;;;;;4974615;28;20450;-74
2022/03/01 08:37:48;;;;;;;1338.03;218.83;;;3.40;99.90;;;;;;4974075;28;20477;-74
2022/03/01 08:40:18;;;;;;;1090.53;226.60;;;3.50;99.90;;;;;;4974178;28;20452;-74
2022/03/01 08:42:47;;;;;;;1450.97;260.80;;;3.50;99.90;;;;;;4975088;28;21044;-74
2022/03/01 08:45:15;;;;;;;1385.43;303.30;;;3.70;99.90;;;;;;4973824;28;20470;-74
2022/03/01 08:47:43;;;;;;;1721.40;356.23;;;3.80;99.90;;;;;;4975189;28;20460;-74
2022/03/01 08:50:12;;;;;;;1238.53;292.10;;;4.00;99.90;;;;;;4973804;28;20466;-74
2022/03/01 08:53:03;;;;;;;1512.77;300.63;;;4.10;99.90;;;;;;4973558;28;20476;-74
2022/03/01 08:55:31;;;;;;;1418.07;359.77;;;4.20;99.90;;;;;;4973640;28;20464;-74
2022/03/01 08:58:02;;;;;;;1081.23;259.80;;;4.20;99.90;;;;;;4973747;28;20820;-74
2022/03/01 09:00:31;;;;;;;1277.20;349.67;;;4.20;99.90;;;;;;4974908;28;20456;-74
2022/03/01 09:03:00;;;;;;;1713.00;450.77;;;4.30;99.90;;;;;;4975671;28;20553;-74
2022/03/01 09:05:28;;;;;;;1916.90;518.30;;;4.30;99.90;;;;;;4973521;28;20441;-74
2022/03/01 09:07:56;;;;;;;1926.40;548.10;;;4.40;99.90;;;;;;4972982;28;20808;-74
2022/03/01 09:10:28;;;;;;;1735.87;484.33;;;4.40;99.90;;;;;;4974639;28;20524;-74
2022/03/01 09:12:58;;;;;;;1535.30;404.33;;;4.50;99.90;;;;;;4974944;28;20469;-74
2022/03/01 09:15:31;;;;;;;1673.60;435.30;;;4.60;99.90;;;;;;4974672;28;20449;-74
2022/03/01 09:18:00;;;;;;;1739.47;461.70;;;4.60;99.90;;;;;;4974869;28;20429;-74
2022/03/01 09:20:29;;;;;;;1790.97;466.20;;;4.70;99.90;;;;;;4974905;28;20433;-74
2022/03/01 09:22:58;;;;;;;1893.47;559.07;;;4.80;99.90;;;;;;4973327;28;20466;-74
2022/03/01 09:25:28;;;;;;;1897.93;555.73;;;4.80;99.90;;;;;;4973343;28;20450;-74
2022/03/01 09:27:56;;;;;;;1999.90;675.30;;;4.90;99.90;;;;;;4973321;28;20438;-74
2022/03/01 09:30:25;;;;;;;1896.40;532.13;;;5.00;99.90;;;;;;4973171;28;20570;-74
2022/03/01 09:32:53;;;;;;;1999.90;709.50;;;5.00;99.90;;;;;;4974815;28;20786;-74
2022/03/01 09:35:21;;;;;;;1999.90;894.27;;;5.10;99.90;;;;;;4973274;28;20540;-74
2022/03/01 09:37:50;;;;;;;1999.90;962.70;;;5.20;99.90;;;;;;4974421;28;20440;-74
2022/03/01 09:40:18;;;;;;;1999.90;720.53;;;5.30;99.90;;;;;;4973167;28;20460;-74
2022/03/01 09:42:47;;;;;;;1999.90;999.90;;;5.30;99.90;;;;;;4973081;28;20497;-74
2022/03/01 09:45:16;;;;;;;1999.90;848.80;;;5.40;99.90;;;;;;4973152;28;20528;-74
2022/03/01 09:47:44;;;;;;;1999.90;882.60;;;5.50;99.90;;;;;;4974638;28;20500;-74
2022/03/01 09:50:15;;;;;;;1999.90;978.87;;;5.50;99.90;;;;;;4973097;28;20477;-74
2022/03/01 09:52:44;;;;;;;1999.90;852.23;;;5.60;99.90;;;;;;4974298;28;20508;-73
2022/03/01 09:55:12;;;;;;;1999.90;674.03;;;5.70;99.90;;;;;;4974170;28;20454;-74
2022/03/01 09:57:40;;;;;;;1999.90;635.57;;;5.90;99.90;;;;;;4973107;28;20814;-73
2022/03/01 10:00:11;;;;;;;1999.90;388.17;;;6.00;99.90;;;;;;4974881;28;20448;-74
2022/03/01 10:02:42;;;;;;;1999.90;999.90;;;6.10;99.90;;;;;;4973074;28;20910;-74
2022/03/01 10:05:12;;;;;;;1999.90;571.00;;;6.10;99.90;;;;;;4973004;28;20923;-74
2022/03/01 10:07:44;;;;;;;1999.90;999.90;;;6.20;99.90;;;;;;4974509;28;20812;-74
2022/03/01 10:10:16;;;;;;;1999.90;999.90;;;6.30;99.90;;;;;;4974184;28;20459;-74
2022/03/01 10:12:52;;;;;;;1999.90;999.90;;;6.40;99.90;;;;;;4974416;28;20536;-74
2022/03/01 10:15:27;;;;;;;1999.90;999.90;;;6.50;99.90;;;;;;4974197;28;20495;-74
2022/03/01 10:17:57;;;;;;;1999.90;999.90;;;6.70;99.90;;;;;;4974472;28;20481;-74
2022/03/01 10:20:25;;;;;;;1999.90;999.90;;;6.80;99.90;;;;;;4976357;28;20449;-74
2022/03/01 10:22:58;;;;;;;1999.90;611.33;;;6.90;99.90;;;;;;4976458;28;21036;-74
2022/03/01 10:25:27;;;;;;;1999.90;791.50;;;7.00;99.90;;;;;;4977791;28;20793;-74
2022/03/01 10:27:56;;;;;;;1999.90;732.87;;;7.20;99.90;;;;;;4976406;28;20976;-74
2022/03/01 10:30:29;;;;;;;1087.93;303.80;;;7.30;99.90;;;;;;4977431;28;20519;-74
2022/03/01 10:33:05;;;;;;;89.13;59.77;;;7.40;99.90;;;;;;4977791;28;20465;-74
2022/03/01 10:35:33;;;;;;;41.60;31.07;;;7.50;99.90;;;;;;4977921;28;20427;-74
2022/03/01 10:38:02;;;;;;;80.07;58.60;;;7.50;99.90;;;;;;4976202;28;20445;-74
2022/03/01 10:40:31;;;;;;;180.33;83.40;;;7.60;99.90;;;;;;4976186;28;20453;-74
2022/03/01 10:43:02;;;;;;;40.73;36.83;;;7.70;99.90;;;;;;4978172;28;20462;-74
2022/03/01 10:45:43;;;;;;;19.93;17.47;;;7.80;99.90;;;;;;4977727;28;20516;-74
2022/03/01 10:48:24;;;;;;;17.70;15.37;;;7.80;99.90;;;;;;4977615;28;20910;-74
2022/03/01 10:50:59;;;;;;;19.10;17.20;;;7.90;99.90;;;;;;4977266;28;20950;-74
2022/03/01 10:53:32;;;;;;;18.40;16.50;;;7.90;99.90;;;;;;4977470;28;20886;-74
2022/03/01 10:56:01;;;;;;;18.20;15.67;;;7.90;99.90;;;;;;4975835;28;20465;-74
2022/03/01 10:58:30;;;;;;;18.63;16.83;;;8.00;99.90;;;;;;4975898;28;20980;-74
2022/03/01 11:01:00;;;;;;;19.10;16.60;;;8.00;99.90;;;;;;4975842;28;20453;-74
2022/03/01 11:03:30;;;;;;;18.40;16.60;;;8.10;99.90;;;;;;4975694;28;20552;-74
2022/03/01 11:06:00;;;;;;;19.20;17.20;;;8.10;99.90;;;;;;4975761;28;20464;-74
2022/03/01 11:08:33;;;;;;;18.20;16.30;;;8.20;99.90;;;;;;4977262;28;20919;-74
2022/03/01 11:11:04;;;;;;;19.50;17.50;;;8.20;99.90;;;;;;4975722;28;20479;-74
2022/03/01 11:13:35;;;;;;;18.47;16.63;;;8.30;99.90;;;;;;4977061;28;20830;-74
2022/03/01 11:16:28;;;;;;;20.67;18.47;;;8.30;99.90;;;;;;4975569;28;20503;-74
2022/03/01 11:19:13;;;;;;;19.23;17.23;;;8.40;99.90;;;;;;4977006;28;20900;-74
2022/03/01 11:21:44;;;;;;;19.93;17.53;;;8.40;99.90;;;;;;4975439;28;20446;-74
2022/03/01 11:24:17;;;;;;;19.37;17.30;;;8.40;99.90;;;;;;4977093;28;20460;-75
2022/03/01 11:26:46;;;;;;;17.80;16.00;;;8.40;99.90;;;;;;4975423;28;20472;-75
2022/03/01 11:29:16;;;;;;;20.27;18.27;;;8.50;99.90;;;;;;4976569;28;20449;-74
2022/03/01 11:31:57;;;;;;;19.80;17.87;;;8.60;99.90;;;;;;4974544;28;20552;-74
2022/03/01 11:34:26;;;;;;;20.90;18.80;;;8.60;99.90;;;;;;4975345;28;20449;-75
2022/03/01 11:36:57;;;;;;;18.27;16.37;;;8.70;99.90;;;;;;4975120;28;20935;-74
2022/03/01 11:39:28;;;;;;;20.77;18.67;;;8.70;99.90;;;;;;4976428;28;20487;-75
2022/03/01 11:42:03;;;;;;;19.00;17.10;;;8.80;99.90;;;;;;4976573;28;20476;-74
2022/03/01 11:44:34;;;;;;;20.90;18.60;;;8.90;99.90;;;;;;4976844;28;20548;-74
2022/03/01 11:47:07;;;;;;;19.77;17.67;;;8.90;99.90;;;;;;4976491;28;20437;-74
2022/03/01 11:49:37;;;;;;;20.60;18.40;;;9.00;99.90;;;;;;4976690;28;20436;-75
2022/03/01 11:52:16;;;;;;;19.47;17.57;;;9.10;99.90;;;;;;4974850;28;20562;-74
2022/03/01 11:54:46;;;;;;;20.27;18.27;;;9.10;99.90;;;;;;4974865;28;20484;-75
2022/03/01 11:57:15;;;;;;;19.40;17.43;;;9.10;99.90;;;;;;4976384;28;20430;-74
2022/03/01 11:59:44;;;;;;;22.03;17.80;;;9.20;99.90;;;;;;4974767;28;20552;-75
2022/03/01 12:02:19;;;;;;;21.60;19.50;;;9.20;99.90;;;;;;4976137;28;20900;-75
2022/03/01 12:04:49;;;;;;;19.03;17.03;;;9.20;99.90;;;;;;4976444;28;20950;-75
2022/03/01 12:07:20;;;;;;;21.60;19.23;;;9.30;99.90;;;;;;4975899;28;20422;-75
2022/03/01 12:09:57;;;;;;;19.60;17.70;;;9.30;99.90;;;;;;4974493;28;20986;-75
2022/03/01 12:12:33;;;;;;;19.60;17.80;;;9.30;99.90;;;;;;4974957;28;20890;-75
2022/03/01 12:15:03;;;;;;;20.47;18.30;;;9.30;99.90;;;;;;4974456;28;20452;-75
2022/03/01 12:17:41;;;;;;;19.40;17.60;;;9.40;99.90;;;;;;4974421;28;20981;-75
2022/03/01 12:20:11;;;;;;;20.67;18.03;;;9.40;99.90;;;;;;4974437;28;20508;-75
2022/03/01 12:22:54;;;;;;;19.07;17.17;;;9.40;99.90;;;;;;4975688;28;20797;-75
2022/03/01 12:25:24;;;;;;;20.23;18.13;;;9.50;99.90;;;;;;4975849;28;20422;-75
2022/03/01 12:27:54;;;;;;;19.27;17.27;;;9.50;99.90;;;;;;4975472;28;20513;-75
2022/03/01 12:30:24;;;;;;;22.97;20.67;;;9.60;99.90;;;;;;4975394;28;20457;-75